createdAt,value
2023-02-17T00:00:25.786Z,10.54
2023-02-17T00:01:25.748Z,10.54
2023-02-17T00:02:25.816Z,10.54
2023-02-17T00:03:25.779Z,10.54
2023-02-17T00:04:25.709Z,10.54
2023-02-17T00:05:25.689Z,10.52
2023-02-17T00:06:25.697Z,10.52
2023-02-17T00:07:25.695Z,10.52
2023-02-17T00:08:25.673Z,10.51
2023-02-17T00:09:25.694Z,10.51
2023-02-17T00:10:25.617Z,10.51
2023-02-17T00:11:25.624Z,10.51
2023-02-17T00:12:25.596Z,10.52
2023-02-17T00:13:25.649Z,10.52
2023-02-17T00:14:25.595Z,10.54
2023-02-17T00:15:25.644Z,10.52
2023-02-17T00:16:25.565Z,10.52
2023-02-17T00:17:25.548Z,10.51
2023-02-17T00:18:25.545Z,10.52
2023-02-17T00:19:25.649Z,10.52
2023-02-17T00:20:25.513Z,10.54
2023-02-17T00:21:25.536Z,10.57
2023-02-17T00:22:25.482Z,10.57
2023-02-17T00:23:25.486Z,10.57
2023-02-17T00:24:25.451Z,10.58
2023-02-17T00:25:25.455Z,10.62
2023-02-17T00:26:25.430Z,10.62
2023-02-17T00:27:25.440Z,10.63
2023-02-17T00:28:25.402Z,10.62
2023-02-17T00:29:25.454Z,10.60
2023-02-17T00:30:25.471Z,10.58
2023-02-17T00:31:25.499Z,10.58
2023-02-17T00:32:25.363Z,10.57
2023-02-17T00:33:25.388Z,10.58
2023-02-17T00:34:25.351Z,10.60
2023-02-17T00:35:25.359Z,10.62
2023-02-17T00:36:25.320Z,10.65
2023-02-17T00:37:25.322Z,10.65
2023-02-17T00:38:25.290Z,10.66
2023-02-17T00:39:25.282Z,10.66
2023-02-17T00:40:25.288Z,10.65
2023-02-17T00:41:25.278Z,10.65
2023-02-17T00:42:25.248Z,10.63
2023-02-17T00:43:25.235Z,10.63
2023-02-17T00:44:25.230Z,10.62
2023-02-17T00:45:25.220Z,10.62
2023-02-17T00:46:25.201Z,10.65
2023-02-17T00:47:25.217Z,10.66
2023-02-17T00:48:25.166Z,10.66
2023-02-17T00:49:25.164Z,10.68
2023-02-17T00:50:25.128Z,10.69
2023-02-17T00:51:25.135Z,10.68
2023-02-17T00:52:25.132Z,10.68
2023-02-17T00:53:25.109Z,10.66
2023-02-17T00:54:25.076Z,10.66
2023-02-17T00:55:25.083Z,10.65
2023-02-17T00:56:25.080Z,10.63
2023-02-17T00:57:25.092Z,10.68
2023-02-17T00:58:25.077Z,10.68
2023-02-17T00:59:25.047Z,10.66
2023-02-17T01:00:25.004Z,10.70
2023-02-17T01:01:24.970Z,10.68
2023-02-17T01:02:24.975Z,10.68
2023-02-17T01:03:24.970Z,10.65
2023-02-17T01:04:25.056Z,10.65
2023-02-17T01:05:24.948Z,10.65
2023-02-17T01:06:24.928Z,10.65
2023-02-17T01:07:24.885Z,10.62
2023-02-17T01:08:24.915Z,10.62
2023-02-17T01:09:24.898Z,10.62
2023-02-17T01:10:24.889Z,10.62
2023-02-17T01:11:24.876Z,10.62
2023-02-17T01:12:24.864Z,10.62
2023-02-17T01:13:25.112Z,10.60
2023-02-17T01:14:24.840Z,10.57
2023-02-17T01:15:24.812Z,10.57
2023-02-17T01:16:24.876Z,10.58
2023-02-17T01:17:24.793Z,10.58
2023-02-17T01:18:24.777Z,10.58
2023-02-17T01:19:24.780Z,10.62
2023-02-17T01:20:24.724Z,10.63
2023-02-17T01:21:24.761Z,10.63
2023-02-17T01:22:24.719Z,10.63
2023-02-17T01:23:24.713Z,10.66
2023-02-17T01:24:24.665Z,10.63
2023-02-17T01:25:24.699Z,10.63
2023-02-17T01:26:24.669Z,10.62
2023-02-17T01:27:24.661Z,10.63
2023-02-17T01:28:24.651Z,10.62
2023-02-17T01:29:24.641Z,10.60
2023-02-17T01:30:24.658Z,10.58
2023-02-17T01:31:24.719Z,10.57
2023-02-17T01:32:24.595Z,10.57
2023-02-17T01:33:24.613Z,10.57
2023-02-17T01:34:24.543Z,10.57
2023-02-17T01:35:24.550Z,10.58
2023-02-17T01:36:24.559Z,10.58
2023-02-17T01:37:24.551Z,10.58
2023-02-17T01:38:24.515Z,10.58
2023-02-17T01:39:24.529Z,10.58
2023-02-17T01:40:24.489Z,10.65
2023-02-17T01:41:24.495Z,10.65
2023-02-17T01:42:24.482Z,10.66
2023-02-17T01:43:24.454Z,10.66
2023-02-17T01:44:24.439Z,10.66
2023-02-17T01:45:24.473Z,10.65
2023-02-17T01:46:24.402Z,10.66
2023-02-17T01:47:24.407Z,10.65
2023-02-17T01:48:24.353Z,10.65
2023-02-17T01:49:24.422Z,10.65
2023-02-17T01:50:24.369Z,10.65
2023-02-17T01:51:24.367Z,10.65
2023-02-17T01:52:24.318Z,10.62
2023-02-17T01:53:24.377Z,10.60
2023-02-17T01:54:24.300Z,10.58
2023-02-17T01:55:24.327Z,10.60
2023-02-17T01:56:24.270Z,10.60
2023-02-17T01:57:24.272Z,10.58
2023-02-17T01:58:24.260Z,10.58
2023-02-17T01:59:24.247Z,10.58
2023-02-17T02:00:24.208Z,10.62
2023-02-17T02:01:24.237Z,10.63
2023-02-17T02:02:24.426Z,10.63
2023-02-17T02:03:24.196Z,10.65
2023-02-17T02:04:24.166Z,10.68
2023-02-17T02:05:24.164Z,10.66
2023-02-17T02:06:24.149Z,10.66
2023-02-17T02:07:24.111Z,10.65
2023-02-17T02:08:24.145Z,10.63
2023-02-17T02:09:24.124Z,10.63
2023-02-17T02:10:24.131Z,10.65
2023-02-17T02:11:24.086Z,10.65
2023-02-17T02:12:24.049Z,10.66
2023-02-17T02:13:24.097Z,10.66
2023-02-17T02:14:24.019Z,10.66
2023-02-17T02:15:24.052Z,10.65
2023-02-17T02:16:24.061Z,10.65
2023-02-17T02:17:24.023Z,10.66
2023-02-17T02:18:24.005Z,10.66
2023-02-17T02:19:24.009Z,10.66
2023-02-17T02:20:23.966Z,10.66
2023-02-17T02:21:24.010Z,10.63
2023-02-17T02:22:23.958Z,10.65
2023-02-17T02:23:23.915Z,10.66
2023-02-17T02:24:23.939Z,10.69
2023-02-17T02:25:23.881Z,10.66
2023-02-17T02:26:23.870Z,10.66
2023-02-17T02:27:23.948Z,10.68
2023-02-17T02:28:23.839Z,10.68
2023-02-17T02:29:23.850Z,10.69
2023-02-17T02:30:23.917Z,10.69
2023-02-17T02:31:23.911Z,10.69
2023-02-17T02:32:23.848Z,10.70
2023-02-17T02:33:23.813Z,10.72
2023-02-17T02:34:23.782Z,10.75
2023-02-17T02:35:23.763Z,10.72
2023-02-17T02:36:23.758Z,10.72
2023-02-17T02:37:23.786Z,10.73
2023-02-17T02:38:23.747Z,10.73
2023-02-17T02:39:23.708Z,10.75
2023-02-17T02:40:23.718Z,10.76
2023-02-17T02:41:23.681Z,10.78
2023-02-17T02:42:23.674Z,10.76
2023-02-17T02:43:23.707Z,10.78
2023-02-17T02:44:23.652Z,10.80
2023-02-17T02:45:23.683Z,10.80
2023-02-17T02:46:23.619Z,10.80
2023-02-17T02:47:23.615Z,10.76
2023-02-17T02:48:23.591Z,10.75
2023-02-17T02:49:23.590Z,10.76
2023-02-17T02:50:23.616Z,10.73
2023-02-17T02:51:23.593Z,10.76
2023-02-17T02:52:23.550Z,10.75
2023-02-17T02:53:23.539Z,10.73
2023-02-17T02:54:23.515Z,10.75
2023-02-17T02:55:23.513Z,10.76
2023-02-17T02:56:23.477Z,10.76
2023-02-17T02:57:23.530Z,10.75
2023-02-17T02:58:23.497Z,10.78
2023-02-17T02:59:23.476Z,10.80
2023-02-17T03:00:23.459Z,10.80
2023-02-17T03:01:23.480Z,10.78
2023-02-17T03:02:23.474Z,10.76
2023-02-17T03:03:23.460Z,10.75
2023-02-17T03:04:23.373Z,10.76
2023-02-17T03:05:23.398Z,10.73
2023-02-17T03:06:23.382Z,10.72
2023-02-17T03:07:23.363Z,10.73
2023-02-17T03:08:23.376Z,10.76
2023-02-17T03:09:23.363Z,10.76
2023-02-17T03:10:23.295Z,10.78
2023-02-17T03:11:23.295Z,10.78
2023-02-17T03:12:23.305Z,10.80
2023-02-17T03:13:23.362Z,10.83
2023-02-17T03:14:23.345Z,10.83
2023-02-17T03:15:23.300Z,10.84
2023-02-17T03:16:23.353Z,10.84
2023-02-17T03:17:23.254Z,10.83
2023-02-17T03:18:23.240Z,10.83
2023-02-17T03:19:23.230Z,10.80
2023-02-17T03:20:23.168Z,10.83
2023-02-17T03:21:23.174Z,10.84
2023-02-17T03:22:23.154Z,10.87
2023-02-17T03:23:23.187Z,10.88
2023-02-17T03:24:23.133Z,10.90
2023-02-17T03:25:23.169Z,10.88
2023-02-17T03:26:23.120Z,10.86
2023-02-17T03:27:23.098Z,10.86
2023-02-17T03:28:23.120Z,10.86
2023-02-17T03:29:23.083Z,10.86
2023-02-17T03:30:23.104Z,10.87
2023-02-17T03:31:23.142Z,10.88
2023-02-17T03:32:23.129Z,10.88
2023-02-17T03:33:23.014Z,10.88
2023-02-17T03:34:23.051Z,10.90
2023-02-17T03:35:23.006Z,10.91
2023-02-17T03:36:23.019Z,10.90
2023-02-17T03:37:22.988Z,10.88
2023-02-17T03:38:22.970Z,10.87
2023-02-17T03:39:22.941Z,10.86
2023-02-17T03:40:22.954Z,10.86
2023-02-17T03:41:22.937Z,10.86
2023-02-17T03:42:22.926Z,10.83
2023-02-17T03:43:22.918Z,10.84
2023-02-17T03:44:22.877Z,10.86
2023-02-17T03:45:22.928Z,10.84
2023-02-17T03:46:22.927Z,10.84
2023-02-17T03:47:22.856Z,10.84
2023-02-17T03:48:22.831Z,10.84
2023-02-17T03:49:22.844Z,10.88
2023-02-17T03:50:22.827Z,10.93
2023-02-17T03:51:22.826Z,10.88
2023-02-17T03:52:22.766Z,10.91
2023-02-17T03:53:22.782Z,10.90
2023-02-17T03:54:22.779Z,10.90
2023-02-17T03:55:22.762Z,10.88
2023-02-17T03:56:22.725Z,10.91
2023-02-17T03:57:22.695Z,10.88
2023-02-17T03:58:22.754Z,10.87
2023-02-17T03:59:22.692Z,10.87
2023-02-17T04:00:22.666Z,10.87
2023-02-17T04:01:22.717Z,10.87
2023-02-17T04:02:22.642Z,10.87
2023-02-17T04:03:22.660Z,10.86
2023-02-17T04:04:22.661Z,10.84
2023-02-17T04:05:22.635Z,10.86
2023-02-17T04:06:22.652Z,10.86
2023-02-17T04:07:22.617Z,10.88
2023-02-17T04:08:22.593Z,10.88
2023-02-17T04:09:22.627Z,10.91
2023-02-17T04:10:22.600Z,10.94
2023-02-17T04:11:22.524Z,10.93
2023-02-17T04:12:22.545Z,10.90
2023-02-17T04:13:22.534Z,10.90
2023-02-17T04:14:22.525Z,10.91
2023-02-17T04:15:22.529Z,10.90
2023-02-17T04:16:22.492Z,10.88
2023-02-17T04:17:22.433Z,10.90
2023-02-17T04:18:22.462Z,10.88
2023-02-17T04:19:23.473Z,10.90
2023-02-17T04:20:22.446Z,10.88
2023-02-17T04:21:22.400Z,10.88
2023-02-17T04:22:22.359Z,10.87
2023-02-17T04:23:22.410Z,10.88
2023-02-17T04:24:22.398Z,10.88
2023-02-17T04:25:22.365Z,10.88
2023-02-17T04:26:22.317Z,10.87
2023-02-17T04:27:22.338Z,10.90
2023-02-17T04:28:22.327Z,10.90
2023-02-17T04:29:22.326Z,10.91
2023-02-17T04:30:22.357Z,10.93
2023-02-17T04:31:22.421Z,10.91
2023-02-17T04:32:22.266Z,10.90
2023-02-17T04:33:22.276Z,10.91
2023-02-17T04:34:22.255Z,10.93
2023-02-17T04:35:22.235Z,10.94
2023-02-17T04:36:22.220Z,10.94
2023-02-17T04:37:22.176Z,10.93
2023-02-17T04:38:22.167Z,10.93
2023-02-17T04:39:22.174Z,10.94
2023-02-17T04:40:22.160Z,10.94
2023-02-17T04:41:22.154Z,10.93
2023-02-17T04:42:22.167Z,10.95
2023-02-17T04:43:22.143Z,10.95
2023-02-17T04:44:22.075Z,10.98
2023-02-17T04:45:22.085Z,10.98
2023-02-17T04:46:22.117Z,10.98
2023-02-17T04:47:22.122Z,10.94
2023-02-17T04:48:22.045Z,10.93
2023-02-17T04:49:22.045Z,10.95
2023-02-17T04:50:22.031Z,10.95
2023-02-17T04:51:22.034Z,10.95
2023-02-17T04:52:22.037Z,10.94
2023-02-17T04:53:22.028Z,10.93
2023-02-17T04:54:21.956Z,10.94
2023-02-17T04:55:21.955Z,10.93
2023-02-17T04:56:21.967Z,10.93
2023-02-17T04:57:21.933Z,10.91
2023-02-17T04:58:21.940Z,10.91
2023-02-17T04:59:23.188Z,10.90
2023-02-17T05:00:21.898Z,10.91
2023-02-17T05:01:21.979Z,10.91
2023-02-17T05:02:21.905Z,10.93
2023-02-17T05:03:21.894Z,10.94
2023-02-17T05:04:21.928Z,10.95
2023-02-17T05:05:21.874Z,10.94
2023-02-17T05:06:21.822Z,10.94
2023-02-17T05:07:21.840Z,10.95
2023-02-17T05:08:21.838Z,10.95
2023-02-17T05:09:21.765Z,10.95
2023-02-17T05:10:23.901Z,10.94
2023-02-17T05:11:21.779Z,10.93
2023-02-17T05:12:22.782Z,10.95
2023-02-17T05:13:21.709Z,10.94
2023-02-17T05:14:21.751Z,10.94
2023-02-17T05:15:21.693Z,10.94
2023-02-17T05:16:21.744Z,10.94
2023-02-17T05:17:21.667Z,10.94
2023-02-17T05:18:21.658Z,10.94
2023-02-17T05:19:21.619Z,10.94
2023-02-17T05:20:21.639Z,10.93
2023-02-17T05:21:21.629Z,10.95
2023-02-17T05:22:21.600Z,10.94
2023-02-17T05:23:21.633Z,10.94
2023-02-17T05:24:21.595Z,10.94
2023-02-17T05:25:21.570Z,10.93
2023-02-17T05:26:21.611Z,10.94
2023-02-17T05:27:21.558Z,10.94
2023-02-17T05:28:21.598Z,10.95
2023-02-17T05:29:21.498Z,10.99
2023-02-17T05:30:21.653Z,11.01
2023-02-17T05:31:21.663Z,10.99
2023-02-17T05:32:21.542Z,11.01
2023-02-17T05:33:21.475Z,10.99
2023-02-17T05:34:21.453Z,11.01
2023-02-17T05:35:21.432Z,10.99
2023-02-17T05:36:21.504Z,10.98
2023-02-17T05:37:28.490Z,10.95
2023-02-17T05:38:21.429Z,10.95
2023-02-17T05:39:21.398Z,10.98
2023-02-17T05:40:21.399Z,10.98
2023-02-17T05:41:21.410Z,10.99
2023-02-17T05:42:21.363Z,10.99
2023-02-17T05:43:21.358Z,10.99
2023-02-17T05:44:21.340Z,11.01
2023-02-17T05:45:21.305Z,10.99
2023-02-17T05:46:21.393Z,11.01
2023-02-17T05:47:21.269Z,10.99
2023-02-17T05:48:21.312Z,10.98
2023-02-17T05:49:21.277Z,10.98
2023-02-17T05:50:21.256Z,10.98
2023-02-17T05:51:21.211Z,10.99
2023-02-17T05:52:21.286Z,11.01
2023-02-17T05:53:21.216Z,11.01
2023-02-17T05:54:21.189Z,10.99
2023-02-17T05:55:21.197Z,10.98
2023-02-17T05:56:21.199Z,10.98
2023-02-17T05:57:21.154Z,10.98
2023-02-17T05:58:21.148Z,10.99
2023-02-17T05:59:21.121Z,10.99
2023-02-17T06:00:21.134Z,10.99
2023-02-17T06:01:21.087Z,11.01
2023-02-17T06:02:21.105Z,10.99
2023-02-17T06:03:21.116Z,10.98
2023-02-17T06:04:21.138Z,10.99
2023-02-17T06:05:21.052Z,11.01
2023-02-17T06:06:21.090Z,11.02
2023-02-17T06:07:21.042Z,11.03
2023-02-17T06:08:21.027Z,11.03
2023-02-17T06:09:21.009Z,11.05
2023-02-17T06:10:21.012Z,11.06
2023-02-17T06:11:20.992Z,11.05
2023-02-17T06:12:20.980Z,11.05
2023-02-17T06:13:20.963Z,11.03
2023-02-17T06:14:20.935Z,11.03
2023-02-17T06:15:20.901Z,11.02
2023-02-17T06:16:21.102Z,11.02
2023-02-17T06:17:20.900Z,11.03
2023-02-17T06:18:20.909Z,11.05
2023-02-17T06:19:20.871Z,11.06
2023-02-17T06:20:20.878Z,11.08
2023-02-17T06:21:20.835Z,11.08
2023-02-17T06:22:20.821Z,11.11
2023-02-17T06:23:20.829Z,11.09
2023-02-17T06:24:20.842Z,11.11
2023-02-17T06:25:20.797Z,11.13
2023-02-17T06:26:20.861Z,11.13
2023-02-17T06:27:20.782Z,11.16
2023-02-17T06:28:20.794Z,11.17
2023-02-17T06:29:20.756Z,11.12
2023-02-17T06:30:20.826Z,11.13
2023-02-17T06:31:20.828Z,11.16
2023-02-17T06:32:20.725Z,11.16
2023-02-17T06:33:20.720Z,11.13
2023-02-17T06:34:20.718Z,11.12
2023-02-17T06:35:20.683Z,11.11
2023-02-17T06:36:20.638Z,11.12
2023-02-17T06:37:20.654Z,11.12
2023-02-17T06:38:20.728Z,11.11
2023-02-17T06:39:20.620Z,11.09
2023-02-17T06:40:20.621Z,11.08
2023-02-17T06:41:20.605Z,11.09
2023-02-17T06:42:20.566Z,11.13
2023-02-17T06:43:20.568Z,11.16
2023-02-17T06:44:20.560Z,11.17
2023-02-17T06:45:20.616Z,11.13
2023-02-17T06:46:20.538Z,11.17
2023-02-17T06:47:20.520Z,11.19
2023-02-17T06:48:20.518Z,11.17
2023-02-17T06:49:20.479Z,11.16
2023-02-17T06:50:20.485Z,11.17
2023-02-17T06:51:20.470Z,11.17
2023-02-17T06:52:20.431Z,11.16
2023-02-17T06:53:20.426Z,11.13
2023-02-17T06:54:20.458Z,11.12
2023-02-17T06:55:20.393Z,11.12
2023-02-17T06:56:21.259Z,11.16
2023-02-17T06:57:20.382Z,11.17
2023-02-17T06:58:20.389Z,11.19
2023-02-17T06:59:20.337Z,11.24
2023-02-17T07:00:20.358Z,11.23
2023-02-17T07:01:20.314Z,11.24
2023-02-17T07:02:20.436Z,11.26
2023-02-17T07:03:20.309Z,11.28
2023-02-17T07:04:20.320Z,11.27
2023-02-17T07:05:20.258Z,11.28
2023-02-17T07:06:20.251Z,11.28
2023-02-17T07:07:20.262Z,11.28
2023-02-17T07:08:20.302Z,11.27
2023-02-17T07:09:20.248Z,11.28
2023-02-17T07:10:20.228Z,11.24
2023-02-17T07:11:20.209Z,11.23
2023-02-17T07:12:20.191Z,11.23
2023-02-17T07:13:20.302Z,11.21
2023-02-17T07:14:20.152Z,11.19
2023-02-17T07:15:20.179Z,11.17
2023-02-17T07:16:20.146Z,11.13
2023-02-17T07:17:20.136Z,11.11
2023-02-17T07:18:20.127Z,11.11
2023-02-17T07:19:20.081Z,11.08
2023-02-17T07:20:20.091Z,11.09
2023-02-17T07:21:20.085Z,11.09
2023-02-17T07:22:20.078Z,11.09
2023-02-17T07:23:20.022Z,11.09
2023-02-17T07:24:20.042Z,11.08
2023-02-17T07:25:20.025Z,11.09
2023-02-17T07:26:19.992Z,11.12
2023-02-17T07:27:20.026Z,11.12
2023-02-17T07:28:19.978Z,11.13
2023-02-17T07:29:19.988Z,11.16
2023-02-17T07:30:20.042Z,11.12
2023-02-17T07:31:19.972Z,11.12
2023-02-17T07:32:19.923Z,11.13
2023-02-17T07:33:19.910Z,11.16
2023-02-17T07:34:19.927Z,11.17
2023-02-17T07:35:19.896Z,11.19
2023-02-17T07:36:19.896Z,11.19
2023-02-17T07:37:19.865Z,11.21
2023-02-17T07:38:19.849Z,11.23
2023-02-17T07:39:19.829Z,11.24
2023-02-17T07:40:19.845Z,11.27
2023-02-17T07:41:19.806Z,11.27
2023-02-17T07:42:19.797Z,11.26
2023-02-17T07:43:19.762Z,11.26
2023-02-17T07:44:19.800Z,11.26
2023-02-17T07:45:19.771Z,11.26
2023-02-17T07:46:19.933Z,11.27
2023-02-17T07:47:19.735Z,11.26
2023-02-17T07:48:19.704Z,11.26
2023-02-17T07:49:19.720Z,11.26
2023-02-17T07:50:19.712Z,11.27
2023-02-17T07:51:19.712Z,11.28
2023-02-17T07:52:19.721Z,11.28
2023-02-17T07:53:19.651Z,11.30
2023-02-17T07:54:19.673Z,11.31
2023-02-17T07:55:19.623Z,11.31
2023-02-17T07:56:19.637Z,11.30
2023-02-17T07:57:19.620Z,11.30
2023-02-17T07:58:19.585Z,11.31
2023-02-17T07:59:19.557Z,11.33
2023-02-17T08:00:19.584Z,11.33
2023-02-17T08:01:19.569Z,11.35
2023-02-17T08:02:19.581Z,11.35
2023-02-17T08:03:19.529Z,11.35
2023-02-17T08:04:19.533Z,11.39
2023-02-17T08:05:20.493Z,11.44
2023-02-17T08:06:19.487Z,11.44
2023-02-17T08:07:19.479Z,11.44
2023-02-17T08:08:19.464Z,11.48
2023-02-17T08:09:19.464Z,11.53
2023-02-17T08:10:19.419Z,11.54
2023-02-17T08:11:19.409Z,11.53
2023-02-17T08:12:19.407Z,11.54
2023-02-17T08:13:19.438Z,11.51
2023-02-17T08:14:19.377Z,11.51
2023-02-17T08:15:19.377Z,11.53
2023-02-17T08:16:19.388Z,11.54
2023-02-17T08:17:19.344Z,11.54
2023-02-17T08:18:19.357Z,11.57
2023-02-17T08:19:19.354Z,11.57
2023-02-17T08:20:19.300Z,11.62
2023-02-17T08:21:19.294Z,11.62
2023-02-17T08:22:19.310Z,11.63
2023-02-17T08:23:19.284Z,11.64
2023-02-17T08:24:19.296Z,11.64
2023-02-17T08:25:19.273Z,11.66
2023-02-17T08:26:19.222Z,11.70
2023-02-17T08:27:19.231Z,11.72
2023-02-17T08:28:19.212Z,11.72
2023-02-17T08:29:19.189Z,11.74
2023-02-17T08:30:19.228Z,11.77
2023-02-17T08:31:19.295Z,11.78
2023-02-17T08:32:19.212Z,11.81
2023-02-17T08:33:19.143Z,11.81
2023-02-17T08:34:19.183Z,11.85
2023-02-17T08:35:19.130Z,11.87
2023-02-17T08:36:19.136Z,11.88
2023-02-17T08:37:19.094Z,11.90
2023-02-17T08:38:19.070Z,11.96
2023-02-17T08:39:19.081Z,11.97
2023-02-17T08:40:19.089Z,11.98
2023-02-17T08:41:19.050Z,11.98
2023-02-17T08:42:19.050Z,12.01
2023-02-17T08:43:19.026Z,12.00
2023-02-17T08:44:19.024Z,11.98
2023-02-17T08:45:18.983Z,11.98
2023-02-17T08:46:19.068Z,11.98
2023-02-17T08:47:18.973Z,12.01
2023-02-17T08:48:19.822Z,12.03
2023-02-17T08:49:18.958Z,12.03
2023-02-17T08:50:18.964Z,12.03
2023-02-17T08:51:18.934Z,12.05
2023-02-17T08:52:18.885Z,12.05
2023-02-17T08:53:18.862Z,12.08
2023-02-17T08:54:18.893Z,12.12
2023-02-17T08:55:18.874Z,12.08
2023-02-17T08:56:18.861Z,12.12
2023-02-17T08:57:18.819Z,12.13
2023-02-17T08:58:18.886Z,12.16
2023-02-17T08:59:18.808Z,12.18
2023-02-17T09:00:18.948Z,12.21
2023-02-17T09:01:18.851Z,12.19
2023-02-17T09:02:18.772Z,12.21
2023-02-17T09:03:18.744Z,12.21
2023-02-17T09:04:18.886Z,12.19
2023-02-17T09:05:18.730Z,12.22
2023-02-17T09:06:18.734Z,12.22
2023-02-17T09:07:18.727Z,12.23
2023-02-17T09:08:18.708Z,12.23
2023-02-17T09:09:18.699Z,12.26
2023-02-17T09:10:18.701Z,12.26
2023-02-17T09:11:18.727Z,12.30
2023-02-17T09:12:18.646Z,12.31
2023-02-17T09:13:18.630Z,12.33
2023-02-17T09:14:18.613Z,12.36
2023-02-17T09:15:18.683Z,12.38
2023-02-17T09:16:18.618Z,12.40
2023-02-17T09:17:18.640Z,12.40
2023-02-17T09:18:18.582Z,12.41
2023-02-17T09:19:18.591Z,12.44
2023-02-17T09:20:24.753Z,12.48
2023-02-17T09:21:19.511Z,12.51
2023-02-17T09:22:31.133Z,12.51
2023-02-17T09:23:19.536Z,12.55
2023-02-17T09:24:18.582Z,12.58
2023-02-17T09:25:18.466Z,12.61
2023-02-17T09:26:18.511Z,12.63
2023-02-17T09:27:18.454Z,12.66
2023-02-17T09:28:18.463Z,12.67
2023-02-17T09:29:18.466Z,12.69
2023-02-17T09:30:18.497Z,12.73
2023-02-17T09:31:18.566Z,12.74
2023-02-17T09:32:18.499Z,12.77
2023-02-17T09:33:18.372Z,12.77
2023-02-17T09:34:18.382Z,12.80
2023-02-17T09:35:18.404Z,12.81
2023-02-17T09:36:18.351Z,12.85
2023-02-17T09:37:18.373Z,12.84
2023-02-17T09:38:18.292Z,12.88
2023-02-17T09:39:18.308Z,12.89
2023-02-17T09:40:18.302Z,12.91
2023-02-17T09:41:18.295Z,12.95
2023-02-17T09:42:18.295Z,12.95
2023-02-17T09:43:18.265Z,12.99
2023-02-17T09:44:18.299Z,12.99
2023-02-17T09:45:18.242Z,13.03
2023-02-17T09:46:18.260Z,13.06
2023-02-17T09:47:18.292Z,13.07
2023-02-17T09:48:18.162Z,13.09
2023-02-17T09:49:18.199Z,13.10
2023-02-17T09:50:18.276Z,13.13
2023-02-17T09:51:18.208Z,13.14
2023-02-17T09:52:18.172Z,13.16
2023-02-17T09:53:18.114Z,13.19
2023-02-17T09:54:18.138Z,13.19
2023-02-17T09:55:18.118Z,13.25
2023-02-17T09:56:19.705Z,13.25
2023-02-17T09:57:18.060Z,13.29
2023-02-17T09:58:18.056Z,13.31
2023-02-17T09:59:18.057Z,13.31
2023-02-17T10:00:18.041Z,13.35
2023-02-17T10:01:18.039Z,13.36
2023-02-17T10:02:18.078Z,13.39
2023-02-17T10:03:18.613Z,13.39
2023-02-17T10:04:18.622Z,13.43
2023-02-17T10:05:18.059Z,13.46
2023-02-17T10:06:17.923Z,13.50
2023-02-17T10:07:17.974Z,13.53
2023-02-17T10:08:17.927Z,13.54
2023-02-17T10:09:17.932Z,13.54
2023-02-17T10:10:17.942Z,13.57
2023-02-17T10:11:17.968Z,13.57
2023-02-17T10:12:17.869Z,13.62
2023-02-17T10:13:17.880Z,13.65
2023-02-17T10:14:17.850Z,13.68
2023-02-17T10:15:18.165Z,13.69
2023-02-17T10:16:17.943Z,13.69
2023-02-17T10:17:17.883Z,13.71
2023-02-17T10:18:17.850Z,13.69
2023-02-17T10:19:17.779Z,13.68
2023-02-17T10:20:17.761Z,13.66
2023-02-17T10:21:17.823Z,13.68
2023-02-17T10:22:17.784Z,13.71
2023-02-17T10:23:17.856Z,13.73
2023-02-17T10:24:17.785Z,13.75
2023-02-17T10:25:17.695Z,13.76
2023-02-17T10:26:17.762Z,13.81
2023-02-17T10:27:17.682Z,13.83
2023-02-17T10:28:17.638Z,13.86
2023-02-17T10:29:17.734Z,13.86
2023-02-17T10:30:17.696Z,13.86
2023-02-17T10:31:17.738Z,13.84
2023-02-17T10:32:20.038Z,13.86
2023-02-17T10:33:17.682Z,13.86
2023-02-17T10:34:17.595Z,13.88
2023-02-17T10:35:17.563Z,13.94
2023-02-17T10:36:17.619Z,13.98
2023-02-17T10:37:17.612Z,14.01
2023-02-17T10:38:17.545Z,14.01
2023-02-17T10:39:17.508Z,14.02
2023-02-17T10:40:17.485Z,14.05
2023-02-17T10:41:17.514Z,14.08
2023-02-17T10:42:17.500Z,14.11
2023-02-17T10:43:17.487Z,14.11
2023-02-17T10:44:17.451Z,14.12
2023-02-17T10:45:17.469Z,14.13
2023-02-17T10:46:17.470Z,14.19
2023-02-17T10:47:17.409Z,14.19
2023-02-17T10:48:17.415Z,14.23
2023-02-17T10:49:17.405Z,14.21
2023-02-17T10:50:17.385Z,14.21
2023-02-17T10:51:17.349Z,14.21
2023-02-17T10:52:17.352Z,14.24
2023-02-17T10:53:17.351Z,14.26
2023-02-17T10:54:17.306Z,14.27
2023-02-17T10:55:23.101Z,14.26
2023-02-17T10:56:18.367Z,14.27
2023-02-17T10:57:17.276Z,14.26
2023-02-17T10:58:17.270Z,14.24
2023-02-17T10:59:17.277Z,14.24
2023-02-17T11:00:17.227Z,14.24
2023-02-17T11:01:17.240Z,14.23
2023-02-17T11:02:17.226Z,14.20
2023-02-17T11:03:17.243Z,14.17
2023-02-17T11:04:17.176Z,14.17
2023-02-17T11:05:17.186Z,14.17
2023-02-17T11:06:17.148Z,14.16
2023-02-17T11:07:17.173Z,14.17
2023-02-17T11:08:17.135Z,14.13
2023-02-17T11:09:17.150Z,14.16
2023-02-17T11:10:17.138Z,14.17
2023-02-17T11:11:17.145Z,14.17
2023-02-17T11:12:17.099Z,14.17
2023-02-17T11:13:17.104Z,14.19
2023-02-17T11:14:17.052Z,14.20
2023-02-17T11:15:17.076Z,14.20
2023-02-17T11:16:17.053Z,14.19
2023-02-17T11:17:17.045Z,14.20
2023-02-17T11:18:17.016Z,14.21
2023-02-17T11:19:17.022Z,14.21
2023-02-17T11:20:16.976Z,14.23
2023-02-17T11:21:16.971Z,14.23
2023-02-17T11:22:16.946Z,14.23
2023-02-17T11:23:16.956Z,14.21
2023-02-17T11:24:16.947Z,14.23
2023-02-17T11:25:16.949Z,14.23
2023-02-17T11:26:16.890Z,14.27
2023-02-17T11:27:16.923Z,14.27
2023-02-17T11:28:16.891Z,14.30
2023-02-17T11:29:16.879Z,14.29
2023-02-17T11:30:16.899Z,14.30
2023-02-17T11:31:16.963Z,14.30
2023-02-17T11:32:16.858Z,14.35
2023-02-17T11:33:16.845Z,14.36
2023-02-17T11:34:16.804Z,14.36
2023-02-17T11:35:16.812Z,14.41
2023-02-17T11:36:16.793Z,14.45
2023-02-17T11:37:16.757Z,14.46
2023-02-17T11:38:23.876Z,14.46
2023-02-17T11:39:16.751Z,14.48
2023-02-17T11:40:16.746Z,14.49
2023-02-17T11:41:19.563Z,14.53
2023-02-17T11:42:16.772Z,14.54
2023-02-17T11:43:16.749Z,14.56
2023-02-17T11:44:16.681Z,14.57
2023-02-17T11:45:16.661Z,14.60
2023-02-17T11:46:16.716Z,14.63
2023-02-17T11:47:16.636Z,14.66
2023-02-17T11:48:16.672Z,14.67
2023-02-17T11:49:16.657Z,14.67
2023-02-17T11:50:16.591Z,14.71
2023-02-17T11:51:16.622Z,14.71
2023-02-17T11:52:16.561Z,14.74
2023-02-17T11:53:16.561Z,14.72
2023-02-17T11:54:16.556Z,14.71
2023-02-17T11:55:16.544Z,14.72
2023-02-17T11:56:16.535Z,14.78
2023-02-17T11:57:16.546Z,14.75
2023-02-17T11:58:16.486Z,14.75
2023-02-17T11:59:16.523Z,14.75
2023-02-17T12:00:16.472Z,14.75
2023-02-17T12:01:16.472Z,14.78
2023-02-17T12:02:16.427Z,14.78
2023-02-17T12:03:16.581Z,14.78
2023-02-17T12:04:16.423Z,14.78
2023-02-17T12:05:16.504Z,14.79
2023-02-17T12:06:16.458Z,14.82
2023-02-17T12:07:16.414Z,14.82
2023-02-17T12:08:16.405Z,14.82
2023-02-17T12:09:16.343Z,14.83
2023-02-17T12:10:16.322Z,14.86
2023-02-17T12:11:16.342Z,14.90
2023-02-17T12:12:16.350Z,14.90
2023-02-17T12:13:16.292Z,14.93
2023-02-17T12:14:16.284Z,14.94
2023-02-17T12:15:16.310Z,14.98
2023-02-17T12:16:16.282Z,14.98
2023-02-17T12:17:16.257Z,15.01
2023-02-17T12:18:16.226Z,15.03
2023-02-17T12:19:16.221Z,15.03
2023-02-17T12:20:16.245Z,15.00
2023-02-17T12:21:16.233Z,14.98
2023-02-17T12:22:16.169Z,14.97
2023-02-17T12:23:16.190Z,14.95
2023-02-17T12:24:16.141Z,14.90
2023-02-17T12:25:16.172Z,14.87
2023-02-17T12:26:16.158Z,14.85
2023-02-17T12:27:16.147Z,14.87
2023-02-17T12:28:16.153Z,14.90
2023-02-17T12:29:16.113Z,14.91
2023-02-17T12:30:16.211Z,14.91
2023-02-17T12:31:16.211Z,14.94
2023-02-17T12:32:16.103Z,14.94
2023-02-17T12:33:16.038Z,14.98
2023-02-17T12:34:16.067Z,15.00
2023-02-17T12:35:16.024Z,15.00
2023-02-17T12:36:15.996Z,15.00
2023-02-17T12:37:15.982Z,14.98
2023-02-17T12:38:15.985Z,14.97
2023-02-17T12:39:16.008Z,14.94
2023-02-17T12:40:16.111Z,14.94
2023-02-17T12:41:15.930Z,14.95
2023-02-17T12:42:15.936Z,14.95
2023-02-17T12:43:15.935Z,14.98
2023-02-17T12:44:15.950Z,14.97
2023-02-17T12:45:15.915Z,15.00
2023-02-17T12:46:15.954Z,15.03
2023-02-17T12:47:15.932Z,15.04
2023-02-17T12:48:15.849Z,15.09
2023-02-17T12:49:15.956Z,15.16
2023-02-17T12:50:15.870Z,15.20
2023-02-17T12:51:15.808Z,15.25
2023-02-17T12:52:15.827Z,15.25